Terminal Aerodrome Forecast
Issued by NWS

Home | Current Version | Previous Version | Text Only | Print | Product List | Glossary Off
Versions: 1 2 3 4 5 6 7 8 9 10 11 12 13 14 15

000
FTUS43 KICT 220520
TAFRSL
TAF
KRSL 220520Z 2206/2306 17012KT P6SM SCT200
     FM221000 18009KT P6SM SCT200 WS020/20040KT
     FM221300 19014KT P6SM SCT200
     FM221700 19015G25KT P6SM FEW090 SCT200=

USA.gov is the U.S. government's official web portal to all federal, state and local government web resources and services.